createdAt,value
2022-12-02T00:04:22.431Z,13.90
2022-12-02T00:09:29.954Z,11.73
2022-12-02T00:14:36.738Z,12.20
2022-12-02T00:19:41.434Z,11.20
2022-12-02T00:24:44.964Z,13.83
2022-12-02T00:29:48.234Z,13.87
2022-12-02T00:34:53.135Z,12.80
2022-12-02T00:39:56.501Z,13.60
2022-12-02T00:45:17.161Z,13.40
2022-12-02T00:50:21.911Z,11.93
2022-12-02T00:55:25.288Z,13.37
2022-12-02T01:00:28.601Z,12.00
2022-12-02T01:05:33.501Z,13.43
2022-12-02T01:10:38.335Z,12.37
2022-12-02T01:15:41.715Z,11.67
2022-12-02T01:20:46.721Z,12.73
2022-12-02T01:25:51.029Z,14.47
2022-12-02T01:30:54.308Z,11.73
2022-12-02T01:35:59.036Z,13.50
2022-12-02T01:41:02.832Z,10.60
2022-12-02T01:46:06.522Z,11.47
2022-12-02T01:51:11.267Z,11.27
2022-12-02T01:56:14.999Z,13.20
2022-12-02T02:01:29.678Z,13.77
2022-12-02T02:06:38.668Z,14.57
2022-12-02T02:11:44.420Z,11.83
2022-12-02T02:16:47.759Z,14.53
2022-12-02T02:21:56.598Z,13.20
2022-12-02T02:27:01.278Z,14.97
2022-12-02T02:32:05.486Z,12.13
2022-12-02T02:37:08.899Z,15.53
2022-12-02T02:42:13.882Z,14.40
2022-12-02T02:47:17.790Z,15.27
2022-12-02T02:52:21.389Z,15.60
2022-12-02T02:57:26.184Z,13.93
2022-12-02T03:02:31.286Z,13.57
2022-12-02T03:07:35.922Z,14.90
2022-12-02T03:12:41.316Z,15.57
2022-12-02T03:17:45.030Z,13.23
2022-12-02T03:22:48.321Z,10.77
2022-12-02T03:27:53.026Z,15.23
2022-12-02T03:32:56.429Z,14.80
2022-12-02T03:38:00.025Z,12.17
2022-12-02T03:43:05.203Z,12.73
2022-12-02T03:48:08.805Z,14.47
2022-12-02T03:53:12.311Z,15.60
2022-12-02T03:58:17.168Z,16.53
2022-12-02T04:03:20.465Z,17.87
2022-12-02T04:08:23.791Z,16.27
2022-12-02T04:13:28.600Z,15.60
2022-12-02T04:18:32.167Z,16.67
2022-12-02T04:23:35.866Z,17.00
2022-12-02T04:28:40.529Z,15.63
2022-12-02T04:33:43.950Z,15.27
2022-12-02T04:38:47.566Z,15.90
2022-12-02T04:43:52.204Z,12.50
2022-12-02T04:48:55.684Z,15.40
2022-12-02T04:53:59.021Z,16.40
2022-12-02T04:59:03.775Z,14.30
2022-12-02T05:04:07.195Z,14.00
2022-12-02T05:09:10.570Z,17.63
2022-12-02T05:14:15.445Z,14.77
2022-12-02T05:19:20.066Z,14.70
2022-12-02T05:24:23.437Z,12.30
2022-12-02T05:29:28.398Z,14.13
2022-12-02T05:34:31.866Z,15.07
2022-12-02T05:39:35.201Z,15.83
2022-12-02T05:44:42.728Z,17.67
2022-12-02T05:49:47.552Z,13.50
2022-12-02T05:54:54.867Z,15.80
2022-12-02T06:00:14.378Z,16.93
2022-12-02T06:05:23.634Z,17.10
2022-12-02T06:10:31.796Z,16.47
2022-12-02T06:15:40.146Z,16.47
2022-12-02T06:20:44.479Z,14.83
2022-12-02T06:25:51.234Z,14.63
2022-12-02T06:31:00.122Z,18.37
2022-12-02T06:36:05.619Z,14.60
2022-12-02T06:41:16.151Z,17.93
2022-12-02T06:46:22.360Z,16.30
2022-12-02T06:51:25.846Z,14.83
2022-12-02T06:56:31.310Z,17.70
2022-12-02T07:01:39.277Z,14.53
2022-12-02T07:06:45.313Z,18.77
2022-12-02T07:11:53.202Z,17.10
2022-12-02T07:17:00.919Z,14.87
2022-12-02T07:22:05.623Z,15.13
2022-12-02T07:27:17.918Z,18.77
2022-12-02T07:32:23.292Z,14.30
2022-12-02T07:37:26.619Z,17.73
2022-12-02T07:42:30.037Z,17.10
2022-12-02T07:47:35.101Z,14.87
2022-12-02T07:52:38.455Z,15.90
2022-12-02T07:57:43.903Z,15.20
2022-12-02T08:02:48.622Z,17.40
2022-12-02T08:07:52.168Z,15.07
2022-12-02T08:12:55.671Z,19.13
2022-12-02T08:18:00.828Z,16.77
2022-12-02T08:23:05.394Z,16.47
2022-12-02T08:28:08.706Z,16.37
2022-12-02T08:33:13.390Z,16.63
2022-12-02T08:38:17.001Z,13.97
2022-12-02T08:43:20.719Z,15.07
2022-12-02T08:48:25.441Z,14.50
2022-12-02T08:53:28.861Z,19.30
2022-12-02T08:58:32.161Z,13.67
2022-12-02T09:03:36.909Z,17.40
2022-12-02T09:08:40.365Z,18.87
2022-12-02T09:13:43.834Z,14.33
2022-12-02T09:18:48.619Z,18.33
2022-12-02T09:23:51.958Z,18.03
2022-12-02T09:28:55.285Z,15.47
2022-12-02T09:34:00.034Z,16.60
2022-12-02T09:39:03.345Z,17.43
2022-12-02T09:44:07.063Z,15.87
2022-12-02T09:49:12.758Z,16.47
2022-12-02T09:54:17.892Z,16.83
2022-12-02T09:59:22.947Z,16.67
2022-12-02T10:04:27.734Z,16.10
2022-12-02T10:09:32.463Z,15.67
2022-12-02T10:14:36.182Z,19.10
2022-12-02T10:19:41.037Z,16.00
2022-12-02T10:24:44.903Z,16.57
2022-12-02T10:29:51.719Z,16.20
2022-12-02T10:35:09.823Z,14.47
2022-12-02T10:40:17.354Z,17.57
2022-12-02T10:45:22.981Z,15.90
2022-12-02T10:50:27.924Z,16.50
2022-12-02T10:55:31.334Z,16.03
2022-12-02T11:00:37.354Z,17.97
2022-12-02T11:05:45.743Z,17.67
2022-12-02T11:10:50.793Z,16.70
2022-12-02T11:15:54.832Z,15.13
2022-12-02T11:21:39.034Z,19.33
2022-12-02T11:27:07.776Z,18.93
2022-12-02T11:32:19.709Z,16.70
2022-12-02T11:37:44.061Z,17.63
2022-12-02T11:42:47.871Z,22.30
2022-12-02T11:47:58.706Z,21.17
2022-12-02T11:53:06.099Z,20.63
2022-12-02T11:58:19.783Z,21.33
2022-12-02T12:03:23.579Z,17.13
2022-12-02T12:08:28.457Z,17.93
2022-12-02T12:13:37.060Z,20.43
2022-12-02T12:18:48.239Z,21.30
2022-12-02T12:23:53.281Z,17.43
2022-12-02T12:28:56.589Z,20.97
2022-12-02T12:33:59.980Z,15.87
2022-12-02T12:39:05.736Z,18.23
2022-12-02T12:44:09.431Z,18.37
2022-12-02T12:49:13.000Z,19.77
2022-12-02T12:54:18.435Z,17.33
2022-12-02T12:59:22.471Z,18.63
2022-12-02T13:04:25.967Z,19.43
2022-12-02T13:09:31.166Z,18.43
2022-12-02T13:14:34.459Z,18.70
2022-12-02T13:19:37.902Z,18.57
2022-12-02T13:24:43.353Z,15.77
2022-12-02T13:29:46.865Z,16.03
2022-12-02T13:34:50.945Z,12.60
2022-12-02T13:39:56.229Z,15.53
2022-12-02T13:44:59.802Z,16.70
2022-12-02T13:50:03.347Z,16.17
2022-12-02T13:55:08.885Z,12.23
2022-12-02T14:00:14.993Z,12.47
2022-12-02T14:05:18.501Z,13.07
2022-12-02T14:10:25.510Z,11.70
2022-12-02T14:15:29.126Z,15.80
2022-12-02T14:20:32.681Z,14.73
2022-12-02T14:25:37.409Z,12.33
2022-12-02T14:30:40.886Z,13.40
2022-12-02T14:35:44.523Z,11.80
2022-12-02T14:40:49.243Z,10.37
2022-12-02T14:45:52.562Z,10.33
2022-12-02T14:50:55.892Z,13.23
2022-12-02T14:56:00.628Z,13.80
2022-12-02T15:01:04.202Z,12.93
2022-12-02T15:06:07.958Z,12.20
2022-12-02T15:11:12.829Z,12.37
2022-12-02T15:16:16.642Z,11.87
2022-12-02T15:21:20.689Z,10.53
2022-12-02T15:26:25.574Z,11.53
2022-12-02T15:31:28.949Z,9.30
2022-12-02T15:36:32.822Z,9.93
2022-12-02T15:41:37.965Z,7.57
2022-12-02T15:46:41.945Z,9.53
2022-12-02T15:51:46.796Z,10.40
2022-12-02T15:56:54.523Z,10.33
2022-12-02T16:02:02.004Z,7.90
2022-12-02T16:07:09.292Z,9.10
2022-12-02T16:12:16.319Z,9.00
2022-12-02T16:17:21.800Z,10.70
2022-12-02T16:22:26.473Z,8.33
2022-12-02T16:27:31.997Z,9.70
2022-12-02T16:32:36.595Z,9.27
2022-12-02T16:37:40.316Z,7.47
2022-12-02T16:42:45.413Z,7.20
2022-12-02T16:47:49.520Z,6.80
2022-12-02T16:52:53.836Z,8.40
2022-12-02T16:57:59.547Z,9.17
2022-12-02T17:03:03.232Z,8.63
2022-12-02T17:08:10.779Z,9.80
2022-12-02T17:13:15.862Z,10.60
2022-12-02T17:18:19.602Z,8.77
2022-12-02T17:23:23.930Z,8.10
2022-12-02T17:28:28.763Z,10.37
2022-12-02T17:33:32.599Z,8.63
2022-12-02T17:38:56.007Z,10.00
2022-12-02T17:44:01.782Z,8.93
2022-12-02T17:49:05.785Z,7.93
2022-12-02T17:54:09.966Z,7.90
2022-12-02T17:59:15.716Z,5.90
2022-12-02T18:04:19.811Z,6.90
2022-12-02T18:09:24.279Z,8.80
2022-12-02T18:14:29.998Z,7.07
2022-12-02T18:19:34.624Z,8.13
2022-12-02T18:24:38.427Z,8.00
2022-12-02T18:29:43.841Z,9.13
2022-12-02T18:34:50.551Z,6.70
2022-12-02T18:39:55.229Z,7.03
2022-12-02T18:45:03.151Z,7.23
2022-12-02T18:50:09.434Z,7.63
2022-12-02T18:55:18.285Z,6.97
2022-12-02T19:00:25.545Z,5.57
2022-12-02T19:05:31.751Z,8.90
2022-12-02T19:10:37.163Z,8.30
2022-12-02T19:15:45.647Z,7.00
2022-12-02T19:20:51.177Z,9.07
2022-12-02T19:25:58.439Z,7.10
2022-12-02T19:31:04.293Z,7.43
2022-12-02T19:36:10.445Z,8.47
2022-12-02T19:41:17.020Z,8.30
2022-12-02T19:46:23.158Z,8.43
2022-12-02T19:51:29.215Z,9.10
2022-12-02T19:56:34.669Z,8.33
2022-12-02T20:01:42.922Z,8.10
2022-12-02T20:06:51.302Z,8.50
2022-12-02T20:12:04.064Z,6.87
2022-12-02T20:17:16.125Z,7.67
2022-12-02T20:22:22.906Z,9.10
2022-12-02T20:27:27.726Z,7.03
2022-12-02T20:32:35.025Z,6.63
2022-12-02T20:37:43.561Z,6.17
2022-12-02T20:42:48.702Z,8.53
2022-12-02T20:47:57.346Z,7.23
2022-12-02T20:53:01.972Z,8.00
2022-12-02T20:58:09.111Z,6.30
2022-12-02T21:03:15.025Z,6.20
2022-12-02T21:08:20.252Z,6.50
2022-12-02T21:13:27.204Z,5.40
2022-12-02T21:18:40.237Z,4.70
2022-12-02T21:23:44.310Z,4.37
2022-12-02T21:28:49.376Z,4.53
2022-12-02T21:33:54.207Z,4.83
2022-12-02T21:38:58.154Z,4.30
2022-12-02T21:44:01.485Z,6.33
2022-12-02T21:49:06.439Z,4.43
2022-12-02T21:54:09.870Z,5.03
2022-12-02T21:59:13.359Z,4.70
2022-12-02T22:04:19.703Z,3.67
2022-12-02T22:09:23.041Z,3.53
2022-12-02T22:14:26.384Z,4.87
2022-12-02T22:19:31.010Z,4.90
2022-12-02T22:24:34.381Z,5.27
2022-12-02T22:29:37.744Z,4.27
2022-12-02T22:34:42.784Z,5.10
2022-12-02T22:39:46.055Z,6.07
2022-12-02T22:44:49.597Z,5.27
2022-12-02T22:49:54.494Z,5.13
2022-12-02T22:54:58.081Z,4.33
2022-12-02T23:00:02.668Z,5.03
2022-12-02T23:05:07.785Z,4.67
2022-12-02T23:10:11.797Z,4.93
2022-12-02T23:15:35.839Z,4.03
2022-12-02T23:20:40.154Z,2.97
2022-12-02T23:25:43.579Z,3.53
2022-12-02T23:30:46.986Z,3.30
2022-12-02T23:35:52.058Z,5.03
2022-12-02T23:40:55.491Z,4.17
2022-12-02T23:45:58.838Z,3.17
2022-12-02T23:51:03.531Z,4.83
2022-12-02T23:56:07.186Z,4.00
